sensor_id;sensor_type;location;lat;lon;timestamp;temperature;humidity
3202;DHT22;34843;48.744;8.958;2023-07-02T00:02:24;16.30;99.90
3202;DHT22;34843;48.744;8.958;2023-07-02T00:04:50;16.20;99.90
3202;DHT22;34843;48.744;8.958;2023-07-02T00:07:16;16.10;99.90
3202;DHT22;34843;48.744;8.958;2023-07-02T00:09:41;16.00;99.90
3202;DHT22;34843;48.744;8.958;2023-07-02T00:12:07;15.90;99.90
3202;DHT22;34843;48.744;8.958;2023-07-02T00:14:33;15.80;99.90
3202;DHT22;34843;48.744;8.958;2023-07-02T00:16:59;15.70;99.90
3202;DHT22;34843;48.744;8.958;2023-07-02T00:19:25;15.80;99.90
3202;DHT22;34843;48.744;8.958;2023-07-02T00:21:51;15.80;99.90
3202;DHT22;34843;48.744;8.958;2023-07-02T00:24:18;15.90;99.90
3202;DHT22;34843;48.744;8.958;2023-07-02T00:26:44;16.00;99.90
3202;DHT22;34843;48.744;8.958;2023-07-02T00:29:09;16.10;99.90
3202;DHT22;34843;48.744;8.958;2023-07-02T00:31:35;16.10;99.90
3202;DHT22;34843;48.744;8.958;2023-07-02T00:34:01;16.20;99.90
3202;DHT22;34843;48.744;8.958;2023-07-02T00:36:27;16.20;99.90
3202;DHT22;34843;48.744;8.958;2023-07-02T00:38:53;16.30;99.90
3202;DHT22;34843;48.744;8.958;2023-07-02T00:41:19;16.30;99.90
3202;DHT22;34843;48.744;8.958;2023-07-02T00:43:44;16.40;99.90
3202;DHT22;34843;48.744;8.958;2023-07-02T00:46:17;16.30;99.90
3202;DHT22;34843;48.744;8.958;2023-07-02T00:48:50;16.20;99.90
3202;DHT22;34843;48.744;8.958;2023-07-02T00:51:18;16.20;99.90
3202;DHT22;34843;48.744;8.958;2023-07-02T00:53:45;16.10;99.90
3202;DHT22;34843;48.744;8.958;2023-07-02T00:56:11;16.10;99.90
3202;DHT22;34843;48.744;8.958;2023-07-02T00:58:41;16.10;99.90
3202;DHT22;34843;48.744;8.958;2023-07-02T01:01:13;16.10;99.90
3202;DHT22;34843;48.744;8.958;2023-07-02T01:03:49;16.10;99.90
3202;DHT22;34843;48.744;8.958;2023-07-02T01:06:17;16.10;99.90
3202;DHT22;34843;48.744;8.958;2023-07-02T01:08:45;16.10;99.90
3202;DHT22;34843;48.744;8.958;2023-07-02T01:11:10;16.10;99.90
3202;DHT22;34843;48.744;8.958;2023-07-02T01:13:36;16.00;99.90
3202;DHT22;34843;48.744;8.958;2023-07-02T01:16:02;15.90;99.90
3202;DHT22;34843;48.744;8.958;2023-07-02T01:18:28;15.70;99.90
3202;DHT22;34843;48.744;8.958;2023-07-02T01:20:55;15.70;99.90
3202;DHT22;34843;48.744;8.958;2023-07-02T01:23:21;15.60;99.90
3202;DHT22;34843;48.744;8.958;2023-07-02T01:25:46;15.60;99.90
3202;DHT22;34843;48.744;8.958;2023-07-02T01:28:12;15.60;99.90
3202;DHT22;34843;48.744;8.958;2023-07-02T01:30:39;15.50;99.90
3202;DHT22;34843;48.744;8.958;2023-07-02T01:33:04;15.50;99.90
3202;DHT22;34843;48.744;8.958;2023-07-02T01:35:30;15.30;99.90
3202;DHT22;34843;48.744;8.958;2023-07-02T01:37:55;15.20;99.90
3202;DHT22;34843;48.744;8.958;2023-07-02T01:40:21;15.00;99.90
3202;DHT22;34843;48.744;8.958;2023-07-02T01:42:46;14.90;99.90
3202;DHT22;34843;48.744;8.958;2023-07-02T01:45:12;14.90;99.90
3202;DHT22;34843;48.744;8.958;2023-07-02T01:47:37;14.80;99.90
3202;DHT22;34843;48.744;8.958;2023-07-02T01:50:04;14.80;99.90
3202;DHT22;34843;48.744;8.958;2023-07-02T01:52:30;14.80;99.90
3202;DHT22;34843;48.744;8.958;2023-07-02T01:54:59;14.80;99.90
3202;DHT22;34843;48.744;8.958;2023-07-02T01:57:24;14.80;99.90
3202;DHT22;34843;48.744;8.958;2023-07-02T01:59:50;14.80;99.90
3202;DHT22;34843;48.744;8.958;2023-07-02T02:02:15;14.80;99.90
3202;DHT22;34843;48.744;8.958;2023-07-02T02:04:41;14.90;99.90
3202;DHT22;34843;48.744;8.958;2023-07-02T02:07:07;15.00;99.90
3202;DHT22;34843;48.744;8.958;2023-07-02T02:09:32;15.10;99.90
3202;DHT22;34843;48.744;8.958;2023-07-02T02:11:58;15.20;99.90
3202;DHT22;34843;48.744;8.958;2023-07-02T02:14:23;15.30;99.90
3202;DHT22;34843;48.744;8.958;2023-07-02T02:16:49;15.30;99.90
3202;DHT22;34843;48.744;8.958;2023-07-02T02:19:15;15.40;99.90
3202;DHT22;34843;48.744;8.958;2023-07-02T02:21:41;15.50;99.90
3202;DHT22;34843;48.744;8.958;2023-07-02T02:24:07;15.60;99.90
3202;DHT22;34843;48.744;8.958;2023-07-02T02:26:33;15.70;99.90
3202;DHT22;34843;48.744;8.958;2023-07-02T02:28:59;15.60;99.90
3202;DHT22;34843;48.744;8.958;2023-07-02T02:31:24;15.70;99.90
3202;DHT22;34843;48.744;8.958;2023-07-02T02:33:50;15.80;99.90
3202;DHT22;34843;48.744;8.958;2023-07-02T02:36:16;15.80;99.90
3202;DHT22;34843;48.744;8.958;2023-07-02T02:38:42;15.90;99.90
3202;DHT22;34843;48.744;8.958;2023-07-02T02:41:08;15.90;99.90
3202;DHT22;34843;48.744;8.958;2023-07-02T02:43:34;15.90;99.90
3202;DHT22;34843;48.744;8.958;2023-07-02T02:45:59;15.90;99.90
3202;DHT22;34843;48.744;8.958;2023-07-02T02:48:25;16.00;99.90
3202;DHT22;34843;48.744;8.958;2023-07-02T02:50:50;16.00;99.90
3202;DHT22;34843;48.744;8.958;2023-07-02T02:53:16;16.00;99.90
3202;DHT22;34843;48.744;8.958;2023-07-02T02:55:42;16.00;99.90
3202;DHT22;34843;48.744;8.958;2023-07-02T02:58:07;15.90;99.90
3202;DHT22;34843;48.744;8.958;2023-07-02T03:00:33;15.90;99.90
3202;DHT22;34843;48.744;8.958;2023-07-02T03:02:58;15.80;99.90
3202;DHT22;34843;48.744;8.958;2023-07-02T03:05:24;15.70;99.90
3202;DHT22;34843;48.744;8.958;2023-07-02T03:07:50;15.50;99.90
3202;DHT22;34843;48.744;8.958;2023-07-02T03:10:17;15.40;99.90
3202;DHT22;34843;48.744;8.958;2023-07-02T03:12:42;15.30;99.90
3202;DHT22;34843;48.744;8.958;2023-07-02T03:15:08;15.10;99.90
3202;DHT22;34843;48.744;8.958;2023-07-02T03:17:34;15.00;99.90
3202;DHT22;34843;48.744;8.958;2023-07-02T03:20:00;14.80;99.90
3202;DHT22;34843;48.744;8.958;2023-07-02T03:22:26;14.60;99.90
3202;DHT22;34843;48.744;8.958;2023-07-02T03:24:51;14.50;99.90
3202;DHT22;34843;48.744;8.958;2023-07-02T03:27:17;14.40;99.90
3202;DHT22;34843;48.744;8.958;2023-07-02T03:29:42;14.40;99.90
3202;DHT22;34843;48.744;8.958;2023-07-02T03:32:08;14.30;99.90
3202;DHT22;34843;48.744;8.958;2023-07-02T03:34:33;14.30;99.90
3202;DHT22;34843;48.744;8.958;2023-07-02T03:36:59;14.30;99.90
3202;DHT22;34843;48.744;8.958;2023-07-02T03:39:24;14.30;99.90
3202;DHT22;34843;48.744;8.958;2023-07-02T03:41:50;14.30;99.90
3202;DHT22;34843;48.744;8.958;2023-07-02T03:44:15;14.30;99.90
3202;DHT22;34843;48.744;8.958;2023-07-02T03:46:41;14.40;99.90
3202;DHT22;34843;48.744;8.958;2023-07-02T03:49:06;14.40;99.90
3202;DHT22;34843;48.744;8.958;2023-07-02T03:51:32;14.40;99.90
3202;DHT22;34843;48.744;8.958;2023-07-02T03:54:01;14.40;99.90
3202;DHT22;34843;48.744;8.958;2023-07-02T03:56:26;14.50;99.90
3202;DHT22;34843;48.744;8.958;2023-07-02T03:58:52;14.50;99.90
3202;DHT22;34843;48.744;8.958;2023-07-02T04:01:18;14.50;99.90
3202;DHT22;34843;48.744;8.958;2023-07-02T04:03:49;14.40;99.90
3202;DHT22;34843;48.744;8.958;2023-07-02T04:06:15;14.40;99.90
3202;DHT22;34843;48.744;8.958;2023-07-02T04:08:41;14.40;99.90
3202;DHT22;34843;48.744;8.958;2023-07-02T04:11:06;14.40;99.90
3202;DHT22;34843;48.744;8.958;2023-07-02T04:13:32;14.50;99.90
3202;DHT22;34843;48.744;8.958;2023-07-02T04:15:57;14.50;99.90
3202;DHT22;34843;48.744;8.958;2023-07-02T04:18:23;14.60;99.90
3202;DHT22;34843;48.744;8.958;2023-07-02T04:20:48;14.70;99.90
3202;DHT22;34843;48.744;8.958;2023-07-02T04:23:14;14.80;99.90
3202;DHT22;34843;48.744;8.958;2023-07-02T04:25:40;14.80;99.90
3202;DHT22;34843;48.744;8.958;2023-07-02T04:28:05;14.80;99.90
3202;DHT22;34843;48.744;8.958;2023-07-02T04:30:31;14.80;99.90
3202;DHT22;34843;48.744;8.958;2023-07-02T04:32:56;14.90;99.90
3202;DHT22;34843;48.744;8.958;2023-07-02T04:35:22;14.90;99.90
3202;DHT22;34843;48.744;8.958;2023-07-02T04:37:47;15.10;99.90
3202;DHT22;34843;48.744;8.958;2023-07-02T04:40:13;15.50;99.90
3202;DHT22;34843;48.744;8.958;2023-07-02T04:42:41;15.80;99.90
3202;DHT22;34843;48.744;8.958;2023-07-02T04:45:13;16.10;99.90
3202;DHT22;34843;48.744;8.958;2023-07-02T04:47:43;17.10;99.90
3202;DHT22;34843;48.744;8.958;2023-07-02T04:50:09;18.50;99.90
3202;DHT22;34843;48.744;8.958;2023-07-02T04:52:35;19.00;99.90
3202;DHT22;34843;48.744;8.958;2023-07-02T04:55:01;18.80;99.90
3202;DHT22;34843;48.744;8.958;2023-07-02T04:57:27;18.60;99.90
3202;DHT22;34843;48.744;8.958;2023-07-02T04:59:53;18.40;99.90
3202;DHT22;34843;48.744;8.958;2023-07-02T05:02:20;18.10;99.90
3202;DHT22;34843;48.744;8.958;2023-07-02T05:04:45;17.90;99.90
3202;DHT22;34843;48.744;8.958;2023-07-02T05:07:11;17.60;99.90
3202;DHT22;34843;48.744;8.958;2023-07-02T05:09:36;17.40;99.90
3202;DHT22;34843;48.744;8.958;2023-07-02T05:12:02;18.30;99.90
3202;DHT22;34843;48.744;8.958;2023-07-02T05:14:28;17.20;99.90
3202;DHT22;34843;48.744;8.958;2023-07-02T05:16:53;17.50;99.90
3202;DHT22;34843;48.744;8.958;2023-07-02T05:19:19;17.70;99.90
3202;DHT22;34843;48.744;8.958;2023-07-02T05:21:44;17.70;99.90
3202;DHT22;34843;48.744;8.958;2023-07-02T05:24:10;17.90;99.90
3202;DHT22;34843;48.744;8.958;2023-07-02T05:26:35;18.50;99.90
3202;DHT22;34843;48.744;8.958;2023-07-02T05:29:01;20.40;99.90
3202;DHT22;34843;48.744;8.958;2023-07-02T05:31:27;22.60;99.90
3202;DHT22;34843;48.744;8.958;2023-07-02T05:33:53;24.70;99.90
3202;DHT22;34843;48.744;8.958;2023-07-02T05:36:19;26.20;99.90
3202;DHT22;34843;48.744;8.958;2023-07-02T05:38:45;27.20;99.90
3202;DHT22;34843;48.744;8.958;2023-07-02T05:41:10;28.20;99.90
3202;DHT22;34843;48.744;8.958;2023-07-02T05:43:36;28.50;99.90
3202;DHT22;34843;48.744;8.958;2023-07-02T05:46:01;29.00;99.90
3202;DHT22;34843;48.744;8.958;2023-07-02T05:48:27;28.80;99.90
3202;DHT22;34843;48.744;8.958;2023-07-02T05:50:53;29.00;99.90
3202;DHT22;34843;48.744;8.958;2023-07-02T05:53:19;28.90;99.90
3202;DHT22;34843;48.744;8.958;2023-07-02T05:55:45;28.10;99.90
3202;DHT22;34843;48.744;8.958;2023-07-02T05:58:11;27.80;99.90
3202;DHT22;34843;48.744;8.958;2023-07-02T06:00:36;27.50;99.90
3202;DHT22;34843;48.744;8.958;2023-07-02T06:03:02;26.90;99.90
3202;DHT22;34843;48.744;8.958;2023-07-02T06:05:28;26.60;99.90
3202;DHT22;34843;48.744;8.958;2023-07-02T06:07:53;27.10;99.90
3202;DHT22;34843;48.744;8.958;2023-07-02T06:10:19;27.10;99.90
3202;DHT22;34843;48.744;8.958;2023-07-02T06:12:44;26.30;99.90
3202;DHT22;34843;48.744;8.958;2023-07-02T06:15:10;26.80;99.90
3202;DHT22;34843;48.744;8.958;2023-07-02T06:17:36;26.10;99.90
3202;DHT22;34843;48.744;8.958;2023-07-02T06:20:05;25.30;99.90
3202;DHT22;34843;48.744;8.958;2023-07-02T06:22:31;25.00;99.90
3202;DHT22;34843;48.744;8.958;2023-07-02T06:24:57;24.40;99.90
3202;DHT22;34843;48.744;8.958;2023-07-02T06:27:22;23.40;99.90
3202;DHT22;34843;48.744;8.958;2023-07-02T06:29:48;22.60;99.90
3202;DHT22;34843;48.744;8.958;2023-07-02T06:32:15;21.70;99.90
3202;DHT22;34843;48.744;8.958;2023-07-02T06:34:40;21.20;99.90
3202;DHT22;34843;48.744;8.958;2023-07-02T06:37:06;21.70;99.90
3202;DHT22;34843;48.744;8.958;2023-07-02T06:39:31;22.10;99.90
3202;DHT22;34843;48.744;8.958;2023-07-02T06:41:57;23.10;99.90
3202;DHT22;34843;48.744;8.958;2023-07-02T06:44:22;23.80;99.90
3202;DHT22;34843;48.744;8.958;2023-07-02T06:46:48;24.80;99.90
3202;DHT22;34843;48.744;8.958;2023-07-02T06:49:14;26.50;99.90
3202;DHT22;34843;48.744;8.958;2023-07-02T06:51:39;27.30;99.90
3202;DHT22;34843;48.744;8.958;2023-07-02T06:54:05;27.70;99.90
3202;DHT22;34843;48.744;8.958;2023-07-02T06:56:31;27.30;99.90
3202;DHT22;34843;48.744;8.958;2023-07-02T06:58:57;27.10;99.90
3202;DHT22;34843;48.744;8.958;2023-07-02T07:01:23;26.80;99.90
3202;DHT22;34843;48.744;8.958;2023-07-02T07:03:49;25.80;99.90
3202;DHT22;34843;48.744;8.958;2023-07-02T07:06:14;25.30;99.90
3202;DHT22;34843;48.744;8.958;2023-07-02T07:08:40;24.60;99.90
3202;DHT22;34843;48.744;8.958;2023-07-02T07:11:06;24.40;99.90
3202;DHT22;34843;48.744;8.958;2023-07-02T07:13:31;24.30;99.90
3202;DHT22;34843;48.744;8.958;2023-07-02T07:15:57;24.60;99.90
3202;DHT22;34843;48.744;8.958;2023-07-02T07:18:22;24.50;99.90
3202;DHT22;34843;48.744;8.958;2023-07-02T07:20:48;24.90;99.90
3202;DHT22;34843;48.744;8.958;2023-07-02T07:23:15;25.20;99.90
3202;DHT22;34843;48.744;8.958;2023-07-02T07:25:42;26.30;99.90
3202;DHT22;34843;48.744;8.958;2023-07-02T07:28:08;26.60;99.90
3202;DHT22;34843;48.744;8.958;2023-07-02T07:30:37;26.10;99.90
3202;DHT22;34843;48.744;8.958;2023-07-02T07:33:02;27.00;99.90
3202;DHT22;34843;48.744;8.958;2023-07-02T07:35:28;28.10;99.90
3202;DHT22;34843;48.744;8.958;2023-07-02T07:37:54;28.50;99.90
3202;DHT22;34843;48.744;8.958;2023-07-02T07:40:19;28.70;99.90
3202;DHT22;34843;48.744;8.958;2023-07-02T07:42:45;28.80;99.90
3202;DHT22;34843;48.744;8.958;2023-07-02T07:45:11;26.80;99.90
3202;DHT22;34843;48.744;8.958;2023-07-02T07:47:37;25.60;99.90
3202;DHT22;34843;48.744;8.958;2023-07-02T07:50:02;24.80;99.90
3202;DHT22;34843;48.744;8.958;2023-07-02T07:52:34;24.20;99.90
3202;DHT22;34843;48.744;8.958;2023-07-02T07:54:59;24.30;99.90
3202;DHT22;34843;48.744;8.958;2023-07-02T07:57:25;25.00;99.90
3202;DHT22;34843;48.744;8.958;2023-07-02T07:59:50;26.10;99.90
3202;DHT22;34843;48.744;8.958;2023-07-02T08:02:16;25.50;99.90
3202;DHT22;34843;48.744;8.958;2023-07-02T08:04:41;24.30;99.90
3202;DHT22;34843;48.744;8.958;2023-07-02T08:07:07;23.70;99.90
3202;DHT22;34843;48.744;8.958;2023-07-02T08:09:34;23.20;99.90
3202;DHT22;34843;48.744;8.958;2023-07-02T08:12:00;22.50;99.90
3202;DHT22;34843;48.744;8.958;2023-07-02T08:14:25;22.30;99.90
3202;DHT22;34843;48.744;8.958;2023-07-02T08:16:51;23.70;99.90
3202;DHT22;34843;48.744;8.958;2023-07-02T08:19:17;25.30;99.90
3202;DHT22;34843;48.744;8.958;2023-07-02T08:21:42;26.50;99.90
3202;DHT22;34843;48.744;8.958;2023-07-02T08:24:08;26.20;99.90
3202;DHT22;34843;48.744;8.958;2023-07-02T08:26:33;26.80;99.90
3202;DHT22;34843;48.744;8.958;2023-07-02T08:28:59;27.30;99.90
3202;DHT22;34843;48.744;8.958;2023-07-02T08:31:24;28.20;99.90
3202;DHT22;34843;48.744;8.958;2023-07-02T08:33:50;27.50;99.90
3202;DHT22;34843;48.744;8.958;2023-07-02T08:36:15;26.90;99.90
3202;DHT22;34843;48.744;8.958;2023-07-02T08:38:41;26.50;99.90
3202;DHT22;34843;48.744;8.958;2023-07-02T08:41:08;26.20;99.90
3202;DHT22;34843;48.744;8.958;2023-07-02T08:43:35;25.90;99.90
3202;DHT22;34843;48.744;8.958;2023-07-02T08:46:01;25.00;99.90
3202;DHT22;34843;48.744;8.958;2023-07-02T08:48:28;23.60;99.90
3202;DHT22;34843;48.744;8.958;2023-07-02T08:50:55;22.70;99.90
3202;DHT22;34843;48.744;8.958;2023-07-02T08:53:21;22.40;99.90
3202;DHT22;34843;48.744;8.958;2023-07-02T08:55:50;22.40;99.90
3202;DHT22;34843;48.744;8.958;2023-07-02T08:58:16;22.40;99.90
3202;DHT22;34843;48.744;8.958;2023-07-02T09:03:31;21.80;99.90
3202;DHT22;34843;48.744;8.958;2023-07-02T09:05:56;21.70;99.90
3202;DHT22;34843;48.744;8.958;2023-07-02T09:08:26;21.80;99.90
3202;DHT22;34843;48.744;8.958;2023-07-02T09:10:53;22.00;99.90
3202;DHT22;34843;48.744;8.958;2023-07-02T09:13:19;21.80;99.90
3202;DHT22;34843;48.744;8.958;2023-07-02T09:15:44;21.50;99.90
3202;DHT22;34843;48.744;8.958;2023-07-02T09:18:20;21.60;99.90
3202;DHT22;34843;48.744;8.958;2023-07-02T09:20:46;21.80;99.90
3202;DHT22;34843;48.744;8.958;2023-07-02T09:23:13;22.00;99.90
3202;DHT22;34843;48.744;8.958;2023-07-02T09:25:40;22.30;99.90
3202;DHT22;34843;48.744;8.958;2023-07-02T09:28:16;22.30;99.90
3202;DHT22;34843;48.744;8.958;2023-07-02T09:30:53;22.00;99.90
3202;DHT22;34843;48.744;8.958;2023-07-02T09:33:18;21.80;99.90
3202;DHT22;34843;48.744;8.958;2023-07-02T09:35:44;21.50;99.90
3202;DHT22;34843;48.744;8.958;2023-07-02T09:38:11;21.60;99.90
3202;DHT22;34843;48.744;8.958;2023-07-02T09:40:46;21.60;99.90
3202;DHT22;34843;48.744;8.958;2023-07-02T09:43:18;21.70;99.90
3202;DHT22;34843;48.744;8.958;2023-07-02T09:45:46;21.90;99.90
3202;DHT22;34843;48.744;8.958;2023-07-02T09:48:15;22.20;99.90
3202;DHT22;34843;48.744;8.958;2023-07-02T09:50:43;22.60;99.90
3202;DHT22;34843;48.744;8.958;2023-07-02T09:53:10;22.60;99.90
3202;DHT22;34843;48.744;8.958;2023-07-02T09:55:36;22.70;99.90
3202;DHT22;34843;48.744;8.958;2023-07-02T09:58:02;23.10;99.90
3202;DHT22;34843;48.744;8.958;2023-07-02T10:00:28;23.60;99.90
3202;DHT22;34843;48.744;8.958;2023-07-02T10:02:53;23.70;99.90
3202;DHT22;34843;48.744;8.958;2023-07-02T10:05:28;23.60;99.90
3202;DHT22;34843;48.744;8.958;2023-07-02T10:07:56;23.50;99.90
3202;DHT22;34843;48.744;8.958;2023-07-02T10:10:29;23.10;99.90
3202;DHT22;34843;48.744;8.958;2023-07-02T10:12:55;23.00;99.90
3202;DHT22;34843;48.744;8.958;2023-07-02T10:15:27;22.90;99.90
3202;DHT22;34843;48.744;8.958;2023-07-02T10:17:59;23.20;99.90
3202;DHT22;34843;48.744;8.958;2023-07-02T10:20:32;23.40;99.90
3202;DHT22;34843;48.744;8.958;2023-07-02T10:23:03;23.30;99.90
3202;DHT22;34843;48.744;8.958;2023-07-02T10:25:34;22.90;99.90
3202;DHT22;34843;48.744;8.958;2023-07-02T10:28:01;22.80;99.90
3202;DHT22;34843;48.744;8.958;2023-07-02T10:30:34;22.40;99.90
3202;DHT22;34843;48.744;8.958;2023-07-02T10:33:16;22.20;99.90
3202;DHT22;34843;48.744;8.958;2023-07-02T10:35:43;21.90;99.90
3202;DHT22;34843;48.744;8.958;2023-07-02T10:38:22;21.90;99.90
3202;DHT22;34843;48.744;8.958;2023-07-02T10:40:59;21.90;99.90
3202;DHT22;34843;48.744;8.958;2023-07-02T10:43:32;22.20;99.90
3202;DHT22;34843;48.744;8.958;2023-07-02T10:45:58;22.40;99.90
3202;DHT22;34843;48.744;8.958;2023-07-02T10:48:28;23.00;99.90
3202;DHT22;34843;48.744;8.958;2023-07-02T10:50:53;23.20;99.90
3202;DHT22;34843;48.744;8.958;2023-07-02T10:53:20;23.30;99.90
3202;DHT22;34843;48.744;8.958;2023-07-02T10:55:52;23.10;99.90
3202;DHT22;34843;48.744;8.958;2023-07-02T10:58:18;22.80;99.90
3202;DHT22;34843;48.744;8.958;2023-07-02T11:00:50;22.70;99.90
3202;DHT22;34843;48.744;8.958;2023-07-02T11:03:24;22.60;99.90
3202;DHT22;34843;48.744;8.958;2023-07-02T11:05:51;22.50;99.90
3202;DHT22;34843;48.744;8.958;2023-07-02T11:08:17;22.40;99.90
3202;DHT22;34843;48.744;8.958;2023-07-02T11:10:43;22.50;99.90
3202;DHT22;34843;48.744;8.958;2023-07-02T11:13:16;22.70;99.90
3202;DHT22;34843;48.744;8.958;2023-07-02T11:15:42;22.90;99.90
3202;DHT22;34843;48.744;8.958;2023-07-02T11:18:15;23.10;99.90
3202;DHT22;34843;48.744;8.958;2023-07-02T11:20:42;23.20;99.90
3202;DHT22;34843;48.744;8.958;2023-07-02T11:23:22;23.40;99.90
3202;DHT22;34843;48.744;8.958;2023-07-02T11:28:20;23.60;99.90
3202;DHT22;34843;48.744;8.958;2023-07-02T11:30:46;23.70;99.90
3202;DHT22;34843;48.744;8.958;2023-07-02T11:33:12;23.60;99.90
3202;DHT22;34843;48.744;8.958;2023-07-02T11:35:37;23.40;99.90
3202;DHT22;34843;48.744;8.958;2023-07-02T11:38:03;23.30;99.90
3202;DHT22;34843;48.744;8.958;2023-07-02T11:40:28;23.30;99.90
3202;DHT22;34843;48.744;8.958;2023-07-02T11:42:54;23.30;99.90
3202;DHT22;34843;48.744;8.958;2023-07-02T11:45:19;23.20;99.90
3202;DHT22;34843;48.744;8.958;2023-07-02T11:47:45;23.20;99.90
3202;DHT22;34843;48.744;8.958;2023-07-02T11:50:10;23.40;99.90
3202;DHT22;34843;48.744;8.958;2023-07-02T11:52:36;23.50;99.90
3202;DHT22;34843;48.744;8.958;2023-07-02T11:55:02;23.60;99.90
3202;DHT22;34843;48.744;8.958;2023-07-02T11:57:27;23.70;99.90
3202;DHT22;34843;48.744;8.958;2023-07-02T11:59:53;23.70;99.90
3202;DHT22;34843;48.744;8.958;2023-07-02T12:02:18;23.60;99.90
3202;DHT22;34843;48.744;8.958;2023-07-02T12:04:44;23.70;99.90
3202;DHT22;34843;48.744;8.958;2023-07-02T12:07:10;23.70;99.90
3202;DHT22;34843;48.744;8.958;2023-07-02T12:09:36;23.60;99.90
3202;DHT22;34843;48.744;8.958;2023-07-02T12:12:02;23.30;99.90
3202;DHT22;34843;48.744;8.958;2023-07-02T12:14:27;23.00;99.90
3202;DHT22;34843;48.744;8.958;2023-07-02T12:16:53;22.90;99.90
3202;DHT22;34843;48.744;8.958;2023-07-02T12:19:18;22.80;99.90
3202;DHT22;34843;48.744;8.958;2023-07-02T12:21:44;22.80;99.90
3202;DHT22;34843;48.744;8.958;2023-07-02T12:24:10;22.80;99.90
3202;DHT22;34843;48.744;8.958;2023-07-02T12:26:36;23.00;99.90
3202;DHT22;34843;48.744;8.958;2023-07-02T12:29:02;23.00;99.90
3202;DHT22;34843;48.744;8.958;2023-07-02T12:31:29;22.90;99.90
3202;DHT22;34843;48.744;8.958;2023-07-02T12:33:55;23.00;99.90
3202;DHT22;34843;48.744;8.958;2023-07-02T12:36:20;22.90;99.90
3202;DHT22;34843;48.744;8.958;2023-07-02T12:38:46;22.90;99.90
3202;DHT22;34843;48.744;8.958;2023-07-02T12:41:11;23.20;99.90
3202;DHT22;34843;48.744;8.958;2023-07-02T12:43:37;23.20;99.90
3202;DHT22;34843;48.744;8.958;2023-07-02T12:46:02;23.00;99.90
3202;DHT22;34843;48.744;8.958;2023-07-02T12:48:28;22.80;99.90
3202;DHT22;34843;48.744;8.958;2023-07-02T12:50:58;22.50;99.90
3202;DHT22;34843;48.744;8.958;2023-07-02T12:53:25;22.40;99.90
3202;DHT22;34843;48.744;8.958;2023-07-02T12:55:51;22.50;99.90
3202;DHT22;34843;48.744;8.958;2023-07-02T12:58:16;22.60;99.90
3202;DHT22;34843;48.744;8.958;2023-07-02T13:00:42;22.60;99.90
3202;DHT22;34843;48.744;8.958;2023-07-02T13:03:12;22.80;99.90
3202;DHT22;34843;48.744;8.958;2023-07-02T13:05:38;22.70;99.90
3202;DHT22;34843;48.744;8.958;2023-07-02T13:08:05;22.80;99.90
3202;DHT22;34843;48.744;8.958;2023-07-02T13:10:33;22.90;99.90
3202;DHT22;34843;48.744;8.958;2023-07-02T13:12:58;23.00;99.90
3202;DHT22;34843;48.744;8.958;2023-07-02T13:15:24;23.30;99.90
3202;DHT22;34843;48.744;8.958;2023-07-02T13:17:50;23.50;99.90
3202;DHT22;34843;48.744;8.958;2023-07-02T13:20:16;23.60;99.90
3202;DHT22;34843;48.744;8.958;2023-07-02T13:22:41;23.60;99.90
3202;DHT22;34843;48.744;8.958;2023-07-02T13:25:07;23.70;99.90
3202;DHT22;34843;48.744;8.958;2023-07-02T13:27:33;23.60;99.90
3202;DHT22;34843;48.744;8.958;2023-07-02T13:29:58;23.50;99.90
3202;DHT22;34843;48.744;8.958;2023-07-02T13:32:24;23.40;99.90
3202;DHT22;34843;48.744;8.958;2023-07-02T13:34:50;23.30;99.90
3202;DHT22;34843;48.744;8.958;2023-07-02T13:37:16;23.40;99.90
3202;DHT22;34843;48.744;8.958;2023-07-02T13:39:44;23.60;99.90
3202;DHT22;34843;48.744;8.958;2023-07-02T13:42:10;23.60;99.90
3202;DHT22;34843;48.744;8.958;2023-07-02T13:44:35;23.70;99.90
3202;DHT22;34843;48.744;8.958;2023-07-02T13:47:01;23.70;99.90
3202;DHT22;34843;48.744;8.958;2023-07-02T13:49:27;23.90;99.90
3202;DHT22;34843;48.744;8.958;2023-07-02T13:51:52;23.90;99.90
3202;DHT22;34843;48.744;8.958;2023-07-02T13:54:18;23.80;99.90
3202;DHT22;34843;48.744;8.958;2023-07-02T13:56:44;23.90;99.90
3202;DHT22;34843;48.744;8.958;2023-07-02T13:59:10;24.00;99.90
3202;DHT22;34843;48.744;8.958;2023-07-02T14:01:35;24.00;99.90
3202;DHT22;34843;48.744;8.958;2023-07-02T14:04:02;23.90;99.90
3202;DHT22;34843;48.744;8.958;2023-07-02T14:06:28;23.90;99.90
3202;DHT22;34843;48.744;8.958;2023-07-02T14:08:54;24.00;99.90
3202;DHT22;34843;48.744;8.958;2023-07-02T14:11:20;23.70;99.90
3202;DHT22;34843;48.744;8.958;2023-07-02T14:13:46;23.80;99.90
3202;DHT22;34843;48.744;8.958;2023-07-02T14:16:12;23.90;99.90
3202;DHT22;34843;48.744;8.958;2023-07-02T14:18:37;23.90;99.90
3202;DHT22;34843;48.744;8.958;2023-07-02T14:21:03;23.90;99.90
3202;DHT22;34843;48.744;8.958;2023-07-02T14:23:28;24.10;99.90
3202;DHT22;34843;48.744;8.958;2023-07-02T14:25:54;23.90;99.90
3202;DHT22;34843;48.744;8.958;2023-07-02T14:28:20;23.90;99.90
3202;DHT22;34843;48.744;8.958;2023-07-02T14:30:45;23.90;99.90
3202;DHT22;34843;48.744;8.958;2023-07-02T14:33:12;23.90;99.90
3202;DHT22;34843;48.744;8.958;2023-07-02T14:35:39;23.90;99.90
3202;DHT22;34843;48.744;8.958;2023-07-02T14:38:05;23.90;99.90
3202;DHT22;34843;48.744;8.958;2023-07-02T14:40:31;24.00;99.90
3202;DHT22;34843;48.744;8.958;2023-07-02T14:42:57;24.00;99.90
3202;DHT22;34843;48.744;8.958;2023-07-02T14:45:23;24.00;99.90
3202;DHT22;34843;48.744;8.958;2023-07-02T14:47:49;24.00;99.90
3202;DHT22;34843;48.744;8.958;2023-07-02T14:50:15;24.10;99.90
3202;DHT22;34843;48.744;8.958;2023-07-02T14:52:40;24.20;99.90
3202;DHT22;34843;48.744;8.958;2023-07-02T14:55:06;24.30;99.90
3202;DHT22;34843;48.744;8.958;2023-07-02T14:57:32;24.30;99.90
3202;DHT22;34843;48.744;8.958;2023-07-02T14:59:58;24.20;99.90
3202;DHT22;34843;48.744;8.958;2023-07-02T15:02:23;24.20;99.90
3202;DHT22;34843;48.744;8.958;2023-07-02T15:04:49;24.30;99.90
3202;DHT22;34843;48.744;8.958;2023-07-02T15:07:14;24.40;99.90
3202;DHT22;34843;48.744;8.958;2023-07-02T15:09:40;24.30;99.90
3202;DHT22;34843;48.744;8.958;2023-07-02T15:12:05;24.00;99.90
3202;DHT22;34843;48.744;8.958;2023-07-02T15:14:31;24.00;99.90
3202;DHT22;34843;48.744;8.958;2023-07-02T15:16:56;24.30;99.90
3202;DHT22;34843;48.744;8.958;2023-07-02T15:19:22;24.50;99.90
3202;DHT22;34843;48.744;8.958;2023-07-02T15:21:49;24.60;99.90
3202;DHT22;34843;48.744;8.958;2023-07-02T15:24:14;24.50;99.90
3202;DHT22;34843;48.744;8.958;2023-07-02T15:26:41;24.50;99.90
3202;DHT22;34843;48.744;8.958;2023-07-02T15:29:07;24.50;99.90
3202;DHT22;34843;48.744;8.958;2023-07-02T15:31:33;24.60;99.90
3202;DHT22;34843;48.744;8.958;2023-07-02T15:34:01;24.80;99.90
3202;DHT22;34843;48.744;8.958;2023-07-02T15:36:27;24.70;99.90
3202;DHT22;34843;48.744;8.958;2023-07-02T15:38:54;24.60;99.90
3202;DHT22;34843;48.744;8.958;2023-07-02T15:41:20;24.60;99.90
3202;DHT22;34843;48.744;8.958;2023-07-02T15:43:46;24.50;99.90
3202;DHT22;34843;48.744;8.958;2023-07-02T15:46:14;24.60;99.90